sensor_id;sensor_type;location;lat;lon;timestamp;temperature;humidity
1129;DHT22;553;51.038;7.216;2023-06-10T00:00:23;21.30;83.90
1129;DHT22;553;51.038;7.216;2023-06-10T00:02:50;21.30;83.60
1129;DHT22;553;51.038;7.216;2023-06-10T00:05:17;21.30;83.70
1129;DHT22;553;51.038;7.216;2023-06-10T00:07:47;21.30;83.60
1129;DHT22;553;51.038;7.216;2023-06-10T00:10:14;21.30;83.60
1129;DHT22;553;51.038;7.216;2023-06-10T00:12:42;21.30;83.50
1129;DHT22;553;51.038;7.216;2023-06-10T00:15:10;21.40;83.50
1129;DHT22;553;51.038;7.216;2023-06-10T00:17:37;21.30;83.50
1129;DHT22;553;51.038;7.216;2023-06-10T00:20:10;21.40;83.60
1129;DHT22;553;51.038;7.216;2023-06-10T00:22:40;21.30;83.50
1129;DHT22;553;51.038;7.216;2023-06-10T00:25:09;21.30;83.40
1129;DHT22;553;51.038;7.216;2023-06-10T00:27:37;21.30;83.40
1129;DHT22;553;51.038;7.216;2023-06-10T00:30:05;21.30;83.40
1129;DHT22;553;51.038;7.216;2023-06-10T00:32:34;21.30;83.50
1129;DHT22;553;51.038;7.216;2023-06-10T00:35:05;21.30;83.50
1129;DHT22;553;51.038;7.216;2023-06-10T00:37:34;21.30;83.90
1129;DHT22;553;51.038;7.216;2023-06-10T00:40:04;21.20;83.40
1129;DHT22;553;51.038;7.216;2023-06-10T00:42:32;21.20;83.40
1129;DHT22;553;51.038;7.216;2023-06-10T00:44:58;21.20;83.40
1129;DHT22;553;51.038;7.216;2023-06-10T00:47:26;21.20;83.40
1129;DHT22;553;51.038;7.216;2023-06-10T00:49:53;21.20;83.50
1129;DHT22;553;51.038;7.216;2023-06-10T00:52:25;21.20;83.30
1129;DHT22;553;51.038;7.216;2023-06-10T00:54:53;21.20;83.30
1129;DHT22;553;51.038;7.216;2023-06-10T00:57:21;21.20;83.40
1129;DHT22;553;51.038;7.216;2023-06-10T00:59:48;21.20;83.70
1129;DHT22;553;51.038;7.216;2023-06-10T01:02:16;21.20;83.50
1129;DHT22;553;51.038;7.216;2023-06-10T01:04:43;21.20;83.50
1129;DHT22;553;51.038;7.216;2023-06-10T01:15:04;21.10;84.10
1129;DHT22;553;51.038;7.216;2023-06-10T01:17:31;21.00;84.50
1129;DHT22;553;51.038;7.216;2023-06-10T01:19:58;21.00;84.70
1129;DHT22;553;51.038;7.216;2023-06-10T01:22:27;21.00;84.60
1129;DHT22;553;51.038;7.216;2023-06-10T01:24:55;20.90;85.10
1129;DHT22;553;51.038;7.216;2023-06-10T01:27:29;20.90;84.80
1129;DHT22;553;51.038;7.216;2023-06-10T01:30:10;20.80;84.70
1129;DHT22;553;51.038;7.216;2023-06-10T01:32:45;20.80;84.50
1129;DHT22;553;51.038;7.216;2023-06-10T01:35:15;20.80;84.60
1129;DHT22;553;51.038;7.216;2023-06-10T01:37:46;20.80;84.70
1129;DHT22;553;51.038;7.216;2023-06-10T01:40:13;20.80;84.70
1129;DHT22;553;51.038;7.216;2023-06-10T01:42:40;20.70;84.70
1129;DHT22;553;51.038;7.216;2023-06-10T01:45:08;20.70;84.90
1129;DHT22;553;51.038;7.216;2023-06-10T01:47:35;20.60;85.00
1129;DHT22;553;51.038;7.216;2023-06-10T01:50:02;20.60;85.40
1129;DHT22;553;51.038;7.216;2023-06-10T01:52:29;20.50;85.80
1129;DHT22;553;51.038;7.216;2023-06-10T01:54:55;20.50;85.40
1129;DHT22;553;51.038;7.216;2023-06-10T01:57:22;20.50;85.40
1129;DHT22;553;51.038;7.216;2023-06-10T01:59:49;20.40;85.50
1129;DHT22;553;51.038;7.216;2023-06-10T02:02:16;20.40;85.90
1129;DHT22;553;51.038;7.216;2023-06-10T02:04:42;20.40;86.10
1129;DHT22;553;51.038;7.216;2023-06-10T02:07:09;20.30;86.20
1129;DHT22;553;51.038;7.216;2023-06-10T02:09:36;20.20;86.40
1129;DHT22;553;51.038;7.216;2023-06-10T02:12:04;20.20;86.50
1129;DHT22;553;51.038;7.216;2023-06-10T02:14:32;20.20;86.20
1129;DHT22;553;51.038;7.216;2023-06-10T02:16:59;20.20;85.70
1129;DHT22;553;51.038;7.216;2023-06-10T02:19:28;20.20;85.70
1129;DHT22;553;51.038;7.216;2023-06-10T02:21:54;20.20;85.90
1129;DHT22;553;51.038;7.216;2023-06-10T02:24:21;20.20;86.00
1129;DHT22;553;51.038;7.216;2023-06-10T02:26:48;20.20;86.00
1129;DHT22;553;51.038;7.216;2023-06-10T02:29:15;20.10;86.20
1129;DHT22;553;51.038;7.216;2023-06-10T02:31:42;20.10;86.10
1129;DHT22;553;51.038;7.216;2023-06-10T02:34:09;20.00;86.10
1129;DHT22;553;51.038;7.216;2023-06-10T02:36:36;19.90;86.10
1129;DHT22;553;51.038;7.216;2023-06-10T02:39:03;19.90;86.60
1129;DHT22;553;51.038;7.216;2023-06-10T02:41:32;19.90;86.40
1129;DHT22;553;51.038;7.216;2023-06-10T02:44:00;19.90;86.60
1129;DHT22;553;51.038;7.216;2023-06-10T02:46:27;19.90;86.60
1129;DHT22;553;51.038;7.216;2023-06-10T02:48:55;19.90;85.30
1129;DHT22;553;51.038;7.216;2023-06-10T02:51:24;19.80;85.20
1129;DHT22;553;51.038;7.216;2023-06-10T02:53:56;19.90;85.20
1129;DHT22;553;51.038;7.216;2023-06-10T02:56:23;19.80;85.80
1129;DHT22;553;51.038;7.216;2023-06-10T02:58:50;19.80;86.30
1129;DHT22;553;51.038;7.216;2023-06-10T03:01:19;19.70;86.50
1129;DHT22;553;51.038;7.216;2023-06-10T03:03:57;19.70;85.20
1129;DHT22;553;51.038;7.216;2023-06-10T03:06:24;19.60;86.70
1129;DHT22;553;51.038;7.216;2023-06-10T03:08:53;19.60;86.70
1129;DHT22;553;51.038;7.216;2023-06-10T03:11:20;19.60;85.80
1129;DHT22;553;51.038;7.216;2023-06-10T03:13:48;19.60;85.60
1129;DHT22;553;51.038;7.216;2023-06-10T03:16:17;19.60;86.80
1129;DHT22;553;51.038;7.216;2023-06-10T03:18:45;19.50;86.10
1129;DHT22;553;51.038;7.216;2023-06-10T03:21:11;19.50;85.80
1129;DHT22;553;51.038;7.216;2023-06-10T03:23:38;19.50;85.90
1129;DHT22;553;51.038;7.216;2023-06-10T03:26:06;19.40;86.90
1129;DHT22;553;51.038;7.216;2023-06-10T03:28:33;19.30;86.40
1129;DHT22;553;51.038;7.216;2023-06-10T03:31:01;19.40;87.10
1129;DHT22;553;51.038;7.216;2023-06-10T03:33:31;19.30;86.40
1129;DHT22;553;51.038;7.216;2023-06-10T03:35:58;19.30;86.60
1129;DHT22;553;51.038;7.216;2023-06-10T03:38:25;19.30;84.90
1129;DHT22;553;51.038;7.216;2023-06-10T03:40:53;19.30;84.30
1129;DHT22;553;51.038;7.216;2023-06-10T03:43:20;19.40;84.50
1129;DHT22;553;51.038;7.216;2023-06-10T03:45:47;19.40;84.50
1129;DHT22;553;51.038;7.216;2023-06-10T03:48:16;19.50;84.90
1129;DHT22;553;51.038;7.216;2023-06-10T03:50:47;19.40;84.40
1129;DHT22;553;51.038;7.216;2023-06-10T03:53:17;19.40;84.10
1129;DHT22;553;51.038;7.216;2023-06-10T03:55:44;19.40;85.30
1129;DHT22;553;51.038;7.216;2023-06-10T03:58:14;19.40;83.50
1129;DHT22;553;51.038;7.216;2023-06-10T04:00:42;19.40;83.90
1129;DHT22;553;51.038;7.216;2023-06-10T04:03:09;19.40;84.20
1129;DHT22;553;51.038;7.216;2023-06-10T04:05:44;19.40;84.30
1129;DHT22;553;51.038;7.216;2023-06-10T04:08:11;19.40;84.50
1129;DHT22;553;51.038;7.216;2023-06-10T04:10:38;19.40;84.30
1129;DHT22;553;51.038;7.216;2023-06-10T04:13:05;19.40;82.90
1129;DHT22;553;51.038;7.216;2023-06-10T04:15:38;19.50;82.20
1129;DHT22;553;51.038;7.216;2023-06-10T04:18:09;19.60;81.60
1129;DHT22;553;51.038;7.216;2023-06-10T04:20:36;19.70;81.60
1129;DHT22;553;51.038;7.216;2023-06-10T04:23:03;19.80;81.30
1129;DHT22;553;51.038;7.216;2023-06-10T04:25:30;19.90;81.10
1129;DHT22;553;51.038;7.216;2023-06-10T04:27:57;20.00;81.20
1129;DHT22;553;51.038;7.216;2023-06-10T04:30:24;20.00;81.10
1129;DHT22;553;51.038;7.216;2023-06-10T04:32:52;20.10;80.50
1129;DHT22;553;51.038;7.216;2023-06-10T04:35:19;20.20;79.60
1129;DHT22;553;51.038;7.216;2023-06-10T04:37:47;20.20;80.10
1129;DHT22;553;51.038;7.216;2023-06-10T04:40:14;20.30;79.60
1129;DHT22;553;51.038;7.216;2023-06-10T04:42:43;20.30;81.30
1129;DHT22;553;51.038;7.216;2023-06-10T04:45:10;20.30;81.40
1129;DHT22;553;51.038;7.216;2023-06-10T04:47:37;20.30;81.20
1129;DHT22;553;51.038;7.216;2023-06-10T04:50:05;20.30;81.30
1129;DHT22;553;51.038;7.216;2023-06-10T04:52:32;20.40;81.50
1129;DHT22;553;51.038;7.216;2023-06-10T04:55:00;20.40;81.30
1129;DHT22;553;51.038;7.216;2023-06-10T04:57:27;20.50;79.20
1129;DHT22;553;51.038;7.216;2023-06-10T04:59:53;20.60;79.20
1129;DHT22;553;51.038;7.216;2023-06-10T05:02:20;20.70;78.80
1129;DHT22;553;51.038;7.216;2023-06-10T05:04:47;20.80;78.40
1129;DHT22;553;51.038;7.216;2023-06-10T05:07:14;20.90;78.10
1129;DHT22;553;51.038;7.216;2023-06-10T05:09:41;21.10;77.60
1129;DHT22;553;51.038;7.216;2023-06-10T05:12:08;21.30;77.20
1129;DHT22;553;51.038;7.216;2023-06-10T05:14:35;21.40;76.70
1129;DHT22;553;51.038;7.216;2023-06-10T05:17:02;21.50;76.50
1129;DHT22;553;51.038;7.216;2023-06-10T05:19:29;21.70;76.00
1129;DHT22;553;51.038;7.216;2023-06-10T05:21:55;21.80;76.00
1129;DHT22;553;51.038;7.216;2023-06-10T05:24:22;21.90;75.90
1129;DHT22;553;51.038;7.216;2023-06-10T05:26:49;22.20;75.10
1129;DHT22;553;51.038;7.216;2023-06-10T05:29:16;22.40;74.80
1129;DHT22;553;51.038;7.216;2023-06-10T05:31:43;22.60;74.70
1129;DHT22;553;51.038;7.216;2023-06-10T05:34:10;22.90;74.40
1129;DHT22;553;51.038;7.216;2023-06-10T05:36:37;23.10;74.00
1129;DHT22;553;51.038;7.216;2023-06-10T05:39:04;23.30;73.20
1129;DHT22;553;51.038;7.216;2023-06-10T05:41:31;23.40;73.00
1129;DHT22;553;51.038;7.216;2023-06-10T05:43:57;23.60;73.20
1129;DHT22;553;51.038;7.216;2023-06-10T05:46:24;23.80;73.10
1129;DHT22;553;51.038;7.216;2023-06-10T05:48:51;23.90;73.20
1129;DHT22;553;51.038;7.216;2023-06-10T05:51:18;24.20;73.10
1129;DHT22;553;51.038;7.216;2023-06-10T05:53:44;24.40;72.70
1129;DHT22;553;51.038;7.216;2023-06-10T05:56:14;24.50;72.10
1129;DHT22;553;51.038;7.216;2023-06-10T05:58:41;24.60;72.00
1129;DHT22;553;51.038;7.216;2023-06-10T06:01:07;24.70;71.90
1129;DHT22;553;51.038;7.216;2023-06-10T06:03:34;24.90;71.50
1129;DHT22;553;51.038;7.216;2023-06-10T06:06:03;24.90;70.90
1129;DHT22;553;51.038;7.216;2023-06-10T06:08:30;25.20;71.40
1129;DHT22;553;51.038;7.216;2023-06-10T06:10:57;25.40;71.10
1129;DHT22;553;51.038;7.216;2023-06-10T06:13:24;25.60;71.10
1129;DHT22;553;51.038;7.216;2023-06-10T06:15:51;25.80;70.40
1129;DHT22;553;51.038;7.216;2023-06-10T06:18:18;26.00;70.70
1129;DHT22;553;51.038;7.216;2023-06-10T06:20:45;25.90;69.90
1129;DHT22;553;51.038;7.216;2023-06-10T06:23:12;26.00;69.80
1129;DHT22;553;51.038;7.216;2023-06-10T06:25:39;26.10;69.70
1129;DHT22;553;51.038;7.216;2023-06-10T06:28:06;26.20;70.00
1129;DHT22;553;51.038;7.216;2023-06-10T06:30:33;26.30;69.10
1129;DHT22;553;51.038;7.216;2023-06-10T06:33:01;26.30;68.40
1129;DHT22;553;51.038;7.216;2023-06-10T06:35:30;26.50;69.00
1129;DHT22;553;51.038;7.216;2023-06-10T06:37:57;26.80;68.30
1129;DHT22;553;51.038;7.216;2023-06-10T06:40:27;26.70;68.40
1129;DHT22;553;51.038;7.216;2023-06-10T06:42:54;26.60;68.60
1129;DHT22;553;51.038;7.216;2023-06-10T06:45:50;26.80;68.50
1129;DHT22;553;51.038;7.216;2023-06-10T06:48:16;27.00;67.20
1129;DHT22;553;51.038;7.216;2023-06-10T06:50:43;26.90;67.00
1129;DHT22;553;51.038;7.216;2023-06-10T06:53:10;27.00;67.40
1129;DHT22;553;51.038;7.216;2023-06-10T06:55:37;27.10;67.70
1129;DHT22;553;51.038;7.216;2023-06-10T06:58:03;27.20;68.00
1129;DHT22;553;51.038;7.216;2023-06-10T07:00:31;27.30;67.30
1129;DHT22;553;51.038;7.216;2023-06-10T07:02:58;27.40;68.10
1129;DHT22;553;51.038;7.216;2023-06-10T07:05:26;27.60;67.00
1129;DHT22;553;51.038;7.216;2023-06-10T07:07:54;27.70;67.40
1129;DHT22;553;51.038;7.216;2023-06-10T07:10:26;27.80;66.40
1129;DHT22;553;51.038;7.216;2023-06-10T07:12:53;27.80;66.60
1129;DHT22;553;51.038;7.216;2023-06-10T07:15:20;27.90;66.70
1129;DHT22;553;51.038;7.216;2023-06-10T07:17:47;28.00;66.40
1129;DHT22;553;51.038;7.216;2023-06-10T07:20:14;28.10;66.40
1129;DHT22;553;51.038;7.216;2023-06-10T07:22:42;28.10;66.20
1129;DHT22;553;51.038;7.216;2023-06-10T07:25:09;28.20;66.40
1129;DHT22;553;51.038;7.216;2023-06-10T07:27:36;28.40;66.10
1129;DHT22;553;51.038;7.216;2023-06-10T07:30:05;28.30;65.40
1129;DHT22;553;51.038;7.216;2023-06-10T07:32:33;28.40;66.10
1129;DHT22;553;51.038;7.216;2023-06-10T07:35:01;28.40;65.80
1129;DHT22;553;51.038;7.216;2023-06-10T07:37:27;28.40;66.80
1129;DHT22;553;51.038;7.216;2023-06-10T07:39:55;28.60;66.20
1129;DHT22;553;51.038;7.216;2023-06-10T07:42:22;28.80;65.90
1129;DHT22;553;51.038;7.216;2023-06-10T07:44:49;28.80;65.10
1129;DHT22;553;51.038;7.216;2023-06-10T07:47:16;28.70;64.80
1129;DHT22;553;51.038;7.216;2023-06-10T07:49:42;29.00;65.50
1129;DHT22;553;51.038;7.216;2023-06-10T07:52:09;29.10;64.70
1129;DHT22;553;51.038;7.216;2023-06-10T07:54:36;29.30;64.60
1129;DHT22;553;51.038;7.216;2023-06-10T07:57:03;29.40;63.30
1129;DHT22;553;51.038;7.216;2023-06-10T07:59:30;29.40;63.70
1129;DHT22;553;51.038;7.216;2023-06-10T08:01:56;29.30;63.60
1129;DHT22;553;51.038;7.216;2023-06-10T08:04:23;29.50;63.70
1129;DHT22;553;51.038;7.216;2023-06-10T08:06:50;29.60;62.80
1129;DHT22;553;51.038;7.216;2023-06-10T08:09:17;29.60;63.70
1129;DHT22;553;51.038;7.216;2023-06-10T08:11:46;29.90;62.80
1129;DHT22;553;51.038;7.216;2023-06-10T08:14:14;30.00;62.90
1129;DHT22;553;51.038;7.216;2023-06-10T08:16:43;29.90;62.90
1129;DHT22;553;51.038;7.216;2023-06-10T08:19:10;30.10;62.20
1129;DHT22;553;51.038;7.216;2023-06-10T08:21:37;30.30;62.30
1129;DHT22;553;51.038;7.216;2023-06-10T08:24:06;30.50;61.80
1129;DHT22;553;51.038;7.216;2023-06-10T08:26:33;30.60;60.60
1129;DHT22;553;51.038;7.216;2023-06-10T08:29:00;30.40;61.80
1129;DHT22;553;51.038;7.216;2023-06-10T08:31:27;30.60;61.80
1129;DHT22;553;51.038;7.216;2023-06-10T08:33:54;30.80;60.90
1129;DHT22;553;51.038;7.216;2023-06-10T08:36:20;30.60;61.20
1129;DHT22;553;51.038;7.216;2023-06-10T08:38:47;30.70;61.00
1129;DHT22;553;51.038;7.216;2023-06-10T08:41:17;30.80;61.10
1129;DHT22;553;51.038;7.216;2023-06-10T08:43:48;30.80;60.00
1129;DHT22;553;51.038;7.216;2023-06-10T08:46:17;31.00;61.20
1129;DHT22;553;51.038;7.216;2023-06-10T08:48:44;31.00;61.00
1129;DHT22;553;51.038;7.216;2023-06-10T08:51:11;30.90;60.60
1129;DHT22;553;51.038;7.216;2023-06-10T08:53:56;30.80;59.90
1129;DHT22;553;51.038;7.216;2023-06-10T08:56:28;30.60;59.20
1129;DHT22;553;51.038;7.216;2023-06-10T08:58:57;30.60;60.50
1129;DHT22;553;51.038;7.216;2023-06-10T09:01:26;30.80;60.00
1129;DHT22;553;51.038;7.216;2023-06-10T09:03:53;30.80;59.20
1129;DHT22;553;51.038;7.216;2023-06-10T09:06:21;30.80;59.40
1129;DHT22;553;51.038;7.216;2023-06-10T09:08:48;31.00;59.40
1129;DHT22;553;51.038;7.216;2023-06-10T09:11:15;31.00;59.10
1129;DHT22;553;51.038;7.216;2023-06-10T09:13:42;31.00;59.70
1129;DHT22;553;51.038;7.216;2023-06-10T09:16:09;31.10;59.70
1129;DHT22;553;51.038;7.216;2023-06-10T09:18:38;30.90;58.90
1129;DHT22;553;51.038;7.216;2023-06-10T09:21:05;30.90;59.90
1129;DHT22;553;51.038;7.216;2023-06-10T09:23:32;30.90;59.20
1129;DHT22;553;51.038;7.216;2023-06-10T09:25:59;31.00;59.90
1129;DHT22;553;51.038;7.216;2023-06-10T09:28:26;30.80;59.90
1129;DHT22;553;51.038;7.216;2023-06-10T09:31:03;31.00;60.50
1129;DHT22;553;51.038;7.216;2023-06-10T09:33:31;31.20;59.50
1129;DHT22;553;51.038;7.216;2023-06-10T09:35:59;31.10;57.80
1129;DHT22;553;51.038;7.216;2023-06-10T09:38:33;31.20;57.80
1129;DHT22;553;51.038;7.216;2023-06-10T09:41:00;31.00;58.70
1129;DHT22;553;51.038;7.216;2023-06-10T09:43:40;31.10;57.60
1129;DHT22;553;51.038;7.216;2023-06-10T09:46:17;31.30;58.70
1129;DHT22;553;51.038;7.216;2023-06-10T09:48:45;31.30;58.50
1129;DHT22;553;51.038;7.216;2023-06-10T09:51:13;31.30;57.60
1129;DHT22;553;51.038;7.216;2023-06-10T09:53:41;31.20;57.80
1129;DHT22;553;51.038;7.216;2023-06-10T09:56:08;31.30;58.60
1129;DHT22;553;51.038;7.216;2023-06-10T09:58:39;31.40;57.80
1129;DHT22;553;51.038;7.216;2023-06-10T10:01:11;31.20;57.40
1129;DHT22;553;51.038;7.216;2023-06-10T10:03:51;30.80;56.10
1129;DHT22;553;51.038;7.216;2023-06-10T10:06:19;30.60;57.70
1129;DHT22;553;51.038;7.216;2023-06-10T10:08:48;30.40;57.70
1129;DHT22;553;51.038;7.216;2023-06-10T10:11:21;30.50;58.50
1129;DHT22;553;51.038;7.216;2023-06-10T10:13:50;30.50;57.90
1129;DHT22;553;51.038;7.216;2023-06-10T10:16:20;30.60;57.20
1129;DHT22;553;51.038;7.216;2023-06-10T10:19:01;30.70;57.40
1129;DHT22;553;51.038;7.216;2023-06-10T10:21:34;30.80;57.40
1129;DHT22;553;51.038;7.216;2023-06-10T10:24:09;30.70;58.20
1129;DHT22;553;51.038;7.216;2023-06-10T10:26:39;30.60;57.40
1129;DHT22;553;51.038;7.216;2023-06-10T10:31:46;30.40;58.00
1129;DHT22;553;51.038;7.216;2023-06-10T10:34:21;30.30;58.30
1129;DHT22;553;51.038;7.216;2023-06-10T10:36:50;30.10;58.80
1129;DHT22;553;51.038;7.216;2023-06-10T10:39:18;30.00;59.70
1129;DHT22;553;51.038;7.216;2023-06-10T10:41:45;29.90;59.60
1129;DHT22;553;51.038;7.216;2023-06-10T10:44:13;29.90;60.50
1129;DHT22;553;51.038;7.216;2023-06-10T10:46:44;29.90;60.30
1129;DHT22;553;51.038;7.216;2023-06-10T10:49:13;29.90;59.90
1129;DHT22;553;51.038;7.216;2023-06-10T10:51:58;29.80;59.90
1129;DHT22;553;51.038;7.216;2023-06-10T10:54:45;29.70;59.80
1129;DHT22;553;51.038;7.216;2023-06-10T10:57:17;29.70;60.70
1129;DHT22;553;51.038;7.216;2023-06-10T10:59:53;29.70;60.50
1129;DHT22;553;51.038;7.216;2023-06-10T11:02:41;29.60;60.30
1129;DHT22;553;51.038;7.216;2023-06-10T11:05:13;29.60;61.30
1129;DHT22;553;51.038;7.216;2023-06-10T11:07:52;29.50;61.80
1129;DHT22;553;51.038;7.216;2023-06-10T11:10:31;29.40;62.00
1129;DHT22;553;51.038;7.216;2023-06-10T11:12:58;29.40;61.80
1129;DHT22;553;51.038;7.216;2023-06-10T11:15:27;29.50;61.70
1129;DHT22;553;51.038;7.216;2023-06-10T11:18:14;29.60;61.80
1129;DHT22;553;51.038;7.216;2023-06-10T11:31:21;29.70;60.90
1129;DHT22;553;51.038;7.216;2023-06-10T11:33:57;29.70;61.40
1129;DHT22;553;51.038;7.216;2023-06-10T11:36:25;29.80;61.90
1129;DHT22;553;51.038;7.216;2023-06-10T11:39:02;29.80;60.70
1129;DHT22;553;51.038;7.216;2023-06-10T11:41:30;29.90;61.70
1129;DHT22;553;51.038;7.216;2023-06-10T11:44:02;30.10;61.00
1129;DHT22;553;51.038;7.216;2023-06-10T11:46:29;30.30;60.30
1129;DHT22;553;51.038;7.216;2023-06-10T11:48:58;30.30;58.50
1129;DHT22;553;51.038;7.216;2023-06-10T11:51:26;30.30;60.00
1129;DHT22;553;51.038;7.216;2023-06-10T11:53:54;30.30;60.50
1129;DHT22;553;51.038;7.216;2023-06-10T11:56:25;30.00;60.50
1129;DHT22;553;51.038;7.216;2023-06-10T11:58:57;29.80;61.00
1129;DHT22;553;51.038;7.216;2023-06-10T12:01:26;29.70;61.80
1129;DHT22;553;51.038;7.216;2023-06-10T12:04:03;29.50;62.30
1129;DHT22;553;51.038;7.216;2023-06-10T12:06:50;29.50;63.00
1129;DHT22;553;51.038;7.216;2023-06-10T12:09:27;29.60;62.30
1129;DHT22;553;51.038;7.216;2023-06-10T12:14:53;29.60;61.90
1129;DHT22;553;51.038;7.216;2023-06-10T12:19:59;29.50;61.50
1129;DHT22;553;51.038;7.216;2023-06-10T12:22:26;29.50;60.50
1129;DHT22;553;51.038;7.216;2023-06-10T12:25:04;29.40;60.60
1129;DHT22;553;51.038;7.216;2023-06-10T12:27:31;29.50;61.60
1129;DHT22;553;51.038;7.216;2023-06-10T12:30:00;29.50;60.70
1129;DHT22;553;51.038;7.216;2023-06-10T12:35:05;29.50;60.50
1129;DHT22;553;51.038;7.216;2023-06-10T12:37:34;29.50;60.70
1129;DHT22;553;51.038;7.216;2023-06-10T12:40:05;29.60;60.40
1129;DHT22;553;51.038;7.216;2023-06-10T12:42:38;29.70;60.60
1129;DHT22;553;51.038;7.216;2023-06-10T12:45:05;29.80;60.90
1129;DHT22;553;51.038;7.216;2023-06-10T12:47:37;30.00;59.30
1129;DHT22;553;51.038;7.216;2023-06-10T12:50:07;30.00;59.90
1129;DHT22;553;51.038;7.216;2023-06-10T12:52:35;29.90;58.70
1129;DHT22;553;51.038;7.216;2023-06-10T12:55:02;30.00;60.10
1129;DHT22;553;51.038;7.216;2023-06-10T12:57:30;30.00;59.40
1129;DHT22;553;51.038;7.216;2023-06-10T12:59:57;29.80;58.70
1129;DHT22;553;51.038;7.216;2023-06-10T13:02:30;29.80;58.60
1129;DHT22;553;51.038;7.216;2023-06-10T13:04:58;29.70;56.80
1129;DHT22;553;51.038;7.216;2023-06-10T13:07:25;29.60;57.10
1129;DHT22;553;51.038;7.216;2023-06-10T13:09:52;29.60;58.40
1129;DHT22;553;51.038;7.216;2023-06-10T13:12:19;29.60;58.10
1129;DHT22;553;51.038;7.216;2023-06-10T13:15:04;29.80;58.20
1129;DHT22;553;51.038;7.216;2023-06-10T13:17:31;29.70;57.20
1129;DHT22;553;51.038;7.216;2023-06-10T13:19:58;29.70;57.60
1129;DHT22;553;51.038;7.216;2023-06-10T13:22:25;29.60;58.10
1129;DHT22;553;51.038;7.216;2023-06-10T13:24:53;29.60;56.20
1129;DHT22;553;51.038;7.216;2023-06-10T13:27:20;29.50;56.30
1129;DHT22;553;51.038;7.216;2023-06-10T13:29:46;29.40;56.10
1129;DHT22;553;51.038;7.216;2023-06-10T13:32:13;29.30;56.10
1129;DHT22;553;51.038;7.216;2023-06-10T13:34:40;29.30;56.70
1129;DHT22;553;51.038;7.216;2023-06-10T13:37:07;29.30;56.90
1129;DHT22;553;51.038;7.216;2023-06-10T13:39:33;29.30;57.00
1129;DHT22;553;51.038;7.216;2023-06-10T13:42:00;29.30;57.60
1129;DHT22;553;51.038;7.216;2023-06-10T13:44:27;29.30;57.00
1129;DHT22;553;51.038;7.216;2023-06-10T13:46:57;29.30;58.00
1129;DHT22;553;51.038;7.216;2023-06-10T13:49:24;29.20;58.50
1129;DHT22;553;51.038;7.216;2023-06-10T13:51:51;29.30;59.00
1129;DHT22;553;51.038;7.216;2023-06-10T13:54:17;29.30;58.40
1129;DHT22;553;51.038;7.216;2023-06-10T13:56:44;29.30;59.30
1129;DHT22;553;51.038;7.216;2023-06-10T13:59:11;29.20;58.70
1129;DHT22;553;51.038;7.216;2023-06-10T14:01:38;29.10;58.60
1129;DHT22;553;51.038;7.216;2023-06-10T14:04:05;29.10;59.40
1129;DHT22;553;51.038;7.216;2023-06-10T14:06:33;29.10;59.00
1129;DHT22;553;51.038;7.216;2023-06-10T14:09:00;29.10;58.60
1129;DHT22;553;51.038;7.216;2023-06-10T14:11:27;29.10;58.90
1129;DHT22;553;51.038;7.216;2023-06-10T14:13:54;29.10;58.60
1129;DHT22;553;51.038;7.216;2023-06-10T14:16:23;29.10;58.50
1129;DHT22;553;51.038;7.216;2023-06-10T14:18:50;29.20;58.90
1129;DHT22;553;51.038;7.216;2023-06-10T14:21:19;29.20;58.40
1129;DHT22;553;51.038;7.216;2023-06-10T14:23:46;29.20;59.40
1129;DHT22;553;51.038;7.216;2023-06-10T14:26:15;29.30;59.10
1129;DHT22;553;51.038;7.216;2023-06-10T14:28:42;29.40;59.10
1129;DHT22;553;51.038;7.216;2023-06-10T14:31:09;29.60;58.00
1129;DHT22;553;51.038;7.216;2023-06-10T14:33:35;29.60;59.00
1129;DHT22;553;51.038;7.216;2023-06-10T14:36:03;29.70;59.70
1129;DHT22;553;51.038;7.216;2023-06-10T14:38:30;29.80;58.50
1129;DHT22;553;51.038;7.216;2023-06-10T14:40:56;29.80;57.30
1129;DHT22;553;51.038;7.216;2023-06-10T14:43:23;29.70;58.40
1129;DHT22;553;51.038;7.216;2023-06-10T14:45:50;29.70;57.70
1129;DHT22;553;51.038;7.216;2023-06-10T14:48:17;29.70;58.10
1129;DHT22;553;51.038;7.216;2023-06-10T14:50:44;29.80;57.50
1129;DHT22;553;51.038;7.216;2023-06-10T14:53:13;29.80;57.10
1129;DHT22;553;51.038;7.216;2023-06-10T14:55:40;29.90;57.00
1129;DHT22;553;51.038;7.216;2023-06-10T14:58:06;29.80;56.20
1129;DHT22;553;51.038;7.216;2023-06-10T15:00:33;29.70;55.80
1129;DHT22;553;51.038;7.216;2023-06-10T15:03:00;29.80;56.90
1129;DHT22;553;51.038;7.216;2023-06-10T15:05:26;29.80;56.20
1129;DHT22;553;51.038;7.216;2023-06-10T15:07:53;29.80;55.70
1129;DHT22;553;51.038;7.216;2023-06-10T15:10:20;29.80;55.70
1129;DHT22;553;51.038;7.216;2023-06-10T15:12:49;29.70;56.20
1129;DHT22;553;51.038;7.216;2023-06-10T15:15:23;29.70;55.80
1129;DHT22;553;51.038;7.216;2023-06-10T15:17:50;29.80;54.70
1129;DHT22;553;51.038;7.216;2023-06-10T15:20:17;29.80;54.50
1129;DHT22;553;51.038;7.216;2023-06-10T15:22:43;30.00;55.50
1129;DHT22;553;51.038;7.216;2023-06-10T15:25:10;30.00;54.00
1129;DHT22;553;51.038;7.216;2023-06-10T15:27:40;30.10;54.40
1129;DHT22;553;51.038;7.216;2023-06-10T15:30:07;30.20;54.40
1129;DHT22;553;51.038;7.216;2023-06-10T15:32:34;30.20;55.00
1129;DHT22;553;51.038;7.216;2023-06-10T15:35:01;30.30;53.50
1129;DHT22;553;51.038;7.216;2023-06-10T15:37:28;30.30;51.90
1129;DHT22;553;51.038;7.216;2023-06-10T15:39:55;30.30;53.10
1129;DHT22;553;51.038;7.216;2023-06-10T15:42:21;30.40;54.10
1129;DHT22;553;51.038;7.216;2023-06-10T15:44:50;30.40;54.50
1129;DHT22;553;51.038;7.216;2023-06-10T15:47:19;30.40;54.40
1129;DHT22;553;51.038;7.216;2023-06-10T15:49:47;30.30;53.10
1129;DHT22;553;51.038;7.216;2023-06-10T15:52:14;30.20;53.60
1129;DHT22;553;51.038;7.216;2023-06-10T15:54:40;30.20;54.10
1129;DHT22;553;51.038;7.216;2023-06-10T15:57:07;30.20;55.10
1129;DHT22;553;51.038;7.216;2023-06-10T15:59:35;30.20;55.20
1129;DHT22;553;51.038;7.216;2023-06-10T16:02:02;30.20;54.40
1129;DHT22;553;51.038;7.216;2023-06-10T16:04:30;30.10;53.60
1129;DHT22;553;51.038;7.216;2023-06-10T16:06:57;30.10;54.00
1129;DHT22;553;51.038;7.216;2023-06-10T16:09:24;30.10;54.90
1129;DHT22;553;51.038;7.216;2023-06-10T16:11:50;30.20;55.20
1129;DHT22;553;51.038;7.216;2023-06-10T16:14:17;30.20;55.10
1129;DHT22;553;51.038;7.216;2023-06-10T16:16:44;30.20;55.40
1129;DHT22;553;51.038;7.216;2023-06-10T16:19:11;30.20;55.60
1129;DHT22;553;51.038;7.216;2023-06-10T16:21:38;30.10;55.20
1129;DHT22;553;51.038;7.216;2023-06-10T16:24:08;30.00;55.30
1129;DHT22;553;51.038;7.216;2023-06-10T16:26:35;29.90;54.10
1129;DHT22;553;51.038;7.216;2023-06-10T16:29:02;29.80;54.50
1129;DHT22;553;51.038;7.216;2023-06-10T16:31:28;29.70;54.40
1129;DHT22;553;51.038;7.216;2023-06-10T16:33:55;29.70;54.20
1129;DHT22;553;51.038;7.216;2023-06-10T16:36:22;29.70;55.10
1129;DHT22;553;51.038;7.216;2023-06-10T16:38:49;29.70;55.80
1129;DHT22;553;51.038;7.216;2023-06-10T16:41:15;29.60;55.50
1129;DHT22;553;51.038;7.216;2023-06-10T16:43:42;29.60;56.10
1129;DHT22;553;51.038;7.216;2023-06-10T16:46:09;29.60;56.20
1129;DHT22;553;51.038;7.216;2023-06-10T16:48:36;29.50;56.10
1129;DHT22;553;51.038;7.216;2023-06-10T16:51:03;29.40;56.00
1129;DHT22;553;51.038;7.216;2023-06-10T16:53:30;29.50;56.40